sensor_id;sensor_type;location;lat;lon;timestamp;P1;durP1;ratioP1;P2;durP2;ratioP2
18425;SDS011;9340;48.756;9.226;2022-09-14T00:01:09;2.83;;;2.20;;
18425;SDS011;9340;48.756;9.226;2022-09-14T00:03:37;3.92;;;2.30;;
18425;SDS011;9340;48.756;9.226;2022-09-14T00:06:04;3.00;;;2.40;;
18425;SDS011;9340;48.756;9.226;2022-09-14T00:08:32;3.47;;;2.10;;
18425;SDS011;9340;48.756;9.226;2022-09-14T00:11:02;1.80;;;1.70;;
18425;SDS011;9340;48.756;9.226;2022-09-14T00:13:30;1.92;;;1.80;;
18425;SDS011;9340;48.756;9.226;2022-09-14T00:16:01;2.63;;;2.10;;
18425;SDS011;9340;48.756;9.226;2022-09-14T00:18:30;2.88;;;1.98;;
18425;SDS011;9340;48.756;9.226;2022-09-14T00:20:58;1.80;;;1.70;;
18425;SDS011;9340;48.756;9.226;2022-09-14T00:23:25;2.78;;;2.22;;
18425;SDS011;9340;48.756;9.226;2022-09-14T00:25:52;3.05;;;2.30;;
18425;SDS011;9340;48.756;9.226;2022-09-14T00:28:18;2.97;;;2.33;;
18425;SDS011;9340;48.756;9.226;2022-09-14T00:30:45;2.53;;;2.08;;
18425;SDS011;9340;48.756;9.226;2022-09-14T00:33:12;3.08;;;2.08;;
18425;SDS011;9340;48.756;9.226;2022-09-14T00:35:40;3.00;;;2.10;;
18425;SDS011;9340;48.756;9.226;2022-09-14T00:38:07;3.55;;;2.30;;
18425;SDS011;9340;48.756;9.226;2022-09-14T00:40:34;2.75;;;2.50;;
18425;SDS011;9340;48.756;9.226;2022-09-14T00:43:00;2.67;;;2.15;;
18425;SDS011;9340;48.756;9.226;2022-09-14T00:45:28;3.55;;;2.30;;
18425;SDS011;9340;48.756;9.226;2022-09-14T00:47:55;2.53;;;2.33;;
18425;SDS011;9340;48.756;9.226;2022-09-14T00:50:22;3.50;;;2.10;;
18425;SDS011;9340;48.756;9.226;2022-09-14T00:52:50;2.83;;;2.45;;
18425;SDS011;9340;48.756;9.226;2022-09-14T00:55:19;2.55;;;2.10;;
18425;SDS011;9340;48.756;9.226;2022-09-14T00:57:48;2.95;;;2.15;;
18425;SDS011;9340;48.756;9.226;2022-09-14T01:00:18;4.47;;;2.15;;
18425;SDS011;9340;48.756;9.226;2022-09-14T01:02:47;2.00;;;1.77;;
18425;SDS011;9340;48.756;9.226;2022-09-14T01:05:14;3.08;;;2.22;;
18425;SDS011;9340;48.756;9.226;2022-09-14T01:07:44;2.67;;;2.47;;
18425;SDS011;9340;48.756;9.226;2022-09-14T01:10:27;3.40;;;2.25;;
18425;SDS011;9340;48.756;9.226;2022-09-14T01:13:04;5.63;;;2.47;;
18425;SDS011;9340;48.756;9.226;2022-09-14T01:15:52;2.53;;;2.33;;
18425;SDS011;9340;48.756;9.226;2022-09-14T01:18:25;2.65;;;2.45;;
18425;SDS011;9340;48.756;9.226;2022-09-14T01:20:55;2.72;;;2.40;;
18425;SDS011;9340;48.756;9.226;2022-09-14T01:23:28;4.13;;;2.47;;
18425;SDS011;9340;48.756;9.226;2022-09-14T01:29:03;3.63;;;2.55;;
18425;SDS011;9340;48.756;9.226;2022-09-14T01:31:39;6.55;;;4.43;;
18425;SDS011;9340;48.756;9.226;2022-09-14T01:34:15;6.22;;;4.40;;
18425;SDS011;9340;48.756;9.226;2022-09-14T01:36:48;21.10;;;8.75;;
18425;SDS011;9340;48.756;9.226;2022-09-14T01:39:19;8.55;;;6.55;;
18425;SDS011;9340;48.756;9.226;2022-09-14T01:41:47;8.98;;;5.50;;
18425;SDS011;9340;48.756;9.226;2022-09-14T01:44:17;8.88;;;5.93;;
18425;SDS011;9340;48.756;9.226;2022-09-14T01:46:47;7.15;;;5.30;;
18425;SDS011;9340;48.756;9.226;2022-09-14T01:49:18;7.20;;;5.50;;
18425;SDS011;9340;48.756;9.226;2022-09-14T01:51:50;10.90;;;7.40;;
18425;SDS011;9340;48.756;9.226;2022-09-14T01:54:22;9.52;;;7.72;;
18425;SDS011;9340;48.756;9.226;2022-09-14T01:56:56;11.05;;;7.40;;
18425;SDS011;9340;48.756;9.226;2022-09-14T01:59:28;11.20;;;6.38;;
18425;SDS011;9340;48.756;9.226;2022-09-14T02:01:58;9.38;;;6.00;;
18425;SDS011;9340;48.756;9.226;2022-09-14T02:04:30;9.25;;;6.57;;
18425;SDS011;9340;48.756;9.226;2022-09-14T02:07:03;7.15;;;5.22;;
18425;SDS011;9340;48.756;9.226;2022-09-14T02:09:30;6.72;;;4.63;;
18425;SDS011;9340;48.756;9.226;2022-09-14T02:11:57;9.90;;;4.43;;
18425;SDS011;9340;48.756;9.226;2022-09-14T02:14:24;7.32;;;5.18;;
18425;SDS011;9340;48.756;9.226;2022-09-14T02:16:53;8.50;;;6.00;;
18425;SDS011;9340;48.756;9.226;2022-09-14T02:19:20;6.72;;;4.90;;
18425;SDS011;9340;48.756;9.226;2022-09-14T02:21:49;10.57;;;6.75;;
18425;SDS011;9340;48.756;9.226;2022-09-14T02:24:16;7.25;;;4.13;;
18425;SDS011;9340;48.756;9.226;2022-09-14T02:26:43;8.05;;;6.10;;
18425;SDS011;9340;48.756;9.226;2022-09-14T02:29:11;8.20;;;5.28;;
18425;SDS011;9340;48.756;9.226;2022-09-14T02:31:43;7.80;;;5.63;;
18425;SDS011;9340;48.756;9.226;2022-09-14T02:34:20;9.88;;;5.15;;
18425;SDS011;9340;48.756;9.226;2022-09-14T02:36:53;7.78;;;5.13;;
18425;SDS011;9340;48.756;9.226;2022-09-14T02:39:32;8.18;;;6.28;;
18425;SDS011;9340;48.756;9.226;2022-09-14T02:42:07;8.50;;;5.78;;
18425;SDS011;9340;48.756;9.226;2022-09-14T02:44:41;7.75;;;5.68;;
18425;SDS011;9340;48.756;9.226;2022-09-14T02:47:14;8.25;;;4.78;;
18425;SDS011;9340;48.756;9.226;2022-09-14T02:49:47;4.63;;;4.00;;
18425;SDS011;9340;48.756;9.226;2022-09-14T02:52:21;11.00;;;6.40;;
18425;SDS011;9340;48.756;9.226;2022-09-14T02:54:55;10.07;;;6.13;;
18425;SDS011;9340;48.756;9.226;2022-09-14T02:57:25;9.15;;;5.47;;
18425;SDS011;9340;48.756;9.226;2022-09-14T02:59:52;11.73;;;6.45;;
18425;SDS011;9340;48.756;9.226;2022-09-14T03:02:20;7.03;;;5.80;;
18425;SDS011;9340;48.756;9.226;2022-09-14T03:04:47;9.98;;;7.00;;
18425;SDS011;9340;48.756;9.226;2022-09-14T03:07:14;5.28;;;4.78;;
18425;SDS011;9340;48.756;9.226;2022-09-14T03:09:40;6.50;;;4.25;;
18425;SDS011;9340;48.756;9.226;2022-09-14T03:12:07;7.47;;;5.43;;
18425;SDS011;9340;48.756;9.226;2022-09-14T03:14:34;10.55;;;6.93;;
18425;SDS011;9340;48.756;9.226;2022-09-14T03:17:00;7.30;;;5.57;;
18425;SDS011;9340;48.756;9.226;2022-09-14T03:19:28;8.50;;;5.95;;
18425;SDS011;9340;48.756;9.226;2022-09-14T03:21:55;6.53;;;5.75;;
18425;SDS011;9340;48.756;9.226;2022-09-14T03:24:22;5.13;;;4.53;;
18425;SDS011;9340;48.756;9.226;2022-09-14T03:26:49;9.02;;;6.15;;
18425;SDS011;9340;48.756;9.226;2022-09-14T03:29:16;5.72;;;5.13;;
18425;SDS011;9340;48.756;9.226;2022-09-14T03:31:42;9.02;;;7.50;;
18425;SDS011;9340;48.756;9.226;2022-09-14T03:34:09;8.73;;;7.05;;
18425;SDS011;9340;48.756;9.226;2022-09-14T03:36:37;8.73;;;7.35;;
18425;SDS011;9340;48.756;9.226;2022-09-14T03:39:04;5.85;;;5.32;;
18425;SDS011;9340;48.756;9.226;2022-09-14T03:41:31;9.07;;;6.72;;
18425;SDS011;9340;48.756;9.226;2022-09-14T03:43:57;8.75;;;6.45;;
18425;SDS011;9340;48.756;9.226;2022-09-14T03:46:24;5.38;;;4.88;;
18425;SDS011;9340;48.756;9.226;2022-09-14T03:48:51;7.38;;;6.68;;
18425;SDS011;9340;48.756;9.226;2022-09-14T03:51:19;8.68;;;5.93;;
18425;SDS011;9340;48.756;9.226;2022-09-14T03:53:47;9.52;;;6.65;;
18425;SDS011;9340;48.756;9.226;2022-09-14T03:56:15;6.18;;;5.57;;
18425;SDS011;9340;48.756;9.226;2022-09-14T03:58:43;8.27;;;7.45;;
18425;SDS011;9340;48.756;9.226;2022-09-14T04:01:11;9.38;;;6.90;;
18425;SDS011;9340;48.756;9.226;2022-09-14T04:03:39;6.60;;;5.97;;
18425;SDS011;9340;48.756;9.226;2022-09-14T04:06:06;8.75;;;7.05;;
18425;SDS011;9340;48.756;9.226;2022-09-14T04:08:34;10.07;;;7.47;;
18425;SDS011;9340;48.756;9.226;2022-09-14T04:11:06;9.15;;;7.97;;
18425;SDS011;9340;48.756;9.226;2022-09-14T04:13:33;8.48;;;6.88;;
18425;SDS011;9340;48.756;9.226;2022-09-14T04:16:00;8.25;;;6.07;;
18425;SDS011;9340;48.756;9.226;2022-09-14T04:18:27;7.80;;;7.03;;
18425;SDS011;9340;48.756;9.226;2022-09-14T04:20:55;7.43;;;5.85;;
18425;SDS011;9340;48.756;9.226;2022-09-14T04:23:22;9.88;;;7.60;;
18425;SDS011;9340;48.756;9.226;2022-09-14T04:25:57;12.27;;;9.25;;
18425;SDS011;9340;48.756;9.226;2022-09-14T04:28:26;7.53;;;6.78;;
18425;SDS011;9340;48.756;9.226;2022-09-14T04:30:54;8.32;;;7.50;;
18425;SDS011;9340;48.756;9.226;2022-09-14T04:33:21;9.40;;;8.50;;
18425;SDS011;9340;48.756;9.226;2022-09-14T04:35:55;6.90;;;6.35;;
18425;SDS011;9340;48.756;9.226;2022-09-14T04:38:23;7.30;;;6.32;;
18425;SDS011;9340;48.756;9.226;2022-09-14T04:40:50;8.50;;;6.13;;
18425;SDS011;9340;48.756;9.226;2022-09-14T04:43:17;8.90;;;8.10;;
18425;SDS011;9340;48.756;9.226;2022-09-14T04:45:45;7.30;;;6.70;;
18425;SDS011;9340;48.756;9.226;2022-09-14T04:48:12;7.65;;;6.13;;
18425;SDS011;9340;48.756;9.226;2022-09-14T04:50:39;9.95;;;8.85;;
18425;SDS011;9340;48.756;9.226;2022-09-14T04:53:06;8.93;;;6.70;;
18425;SDS011;9340;48.756;9.226;2022-09-14T04:55:32;9.25;;;7.78;;
18425;SDS011;9340;48.756;9.226;2022-09-14T04:57:59;10.40;;;9.35;;
18425;SDS011;9340;48.756;9.226;2022-09-14T05:00:26;13.23;;;10.55;;
18425;SDS011;9340;48.756;9.226;2022-09-14T05:02:54;11.55;;;10.38;;
18425;SDS011;9340;48.756;9.226;2022-09-14T05:05:21;10.55;;;9.55;;
18425;SDS011;9340;48.756;9.226;2022-09-14T05:07:48;8.57;;;7.68;;
18425;SDS011;9340;48.756;9.226;2022-09-14T05:10:14;11.50;;;9.48;;
18425;SDS011;9340;48.756;9.226;2022-09-14T05:12:41;10.82;;;9.63;;
18425;SDS011;9340;48.756;9.226;2022-09-14T05:15:08;11.35;;;9.80;;
18425;SDS011;9340;48.756;9.226;2022-09-14T05:17:35;10.27;;;9.18;;
18425;SDS011;9340;48.756;9.226;2022-09-14T05:20:04;8.85;;;7.18;;
18425;SDS011;9340;48.756;9.226;2022-09-14T05:22:32;10.27;;;9.27;;
18425;SDS011;9340;48.756;9.226;2022-09-14T05:24:59;12.23;;;10.32;;
18425;SDS011;9340;48.756;9.226;2022-09-14T05:27:26;11.02;;;9.82;;
18425;SDS011;9340;48.756;9.226;2022-09-14T05:29:53;8.25;;;7.45;;
18425;SDS011;9340;48.756;9.226;2022-09-14T05:32:19;10.32;;;9.32;;
18425;SDS011;9340;48.756;9.226;2022-09-14T05:34:46;12.88;;;11.68;;
18425;SDS011;9340;48.756;9.226;2022-09-14T05:37:14;10.77;;;9.63;;
18425;SDS011;9340;48.756;9.226;2022-09-14T05:39:41;8.60;;;7.53;;
18425;SDS011;9340;48.756;9.226;2022-09-14T05:42:07;6.93;;;6.25;;
18425;SDS011;9340;48.756;9.226;2022-09-14T05:44:34;7.68;;;6.97;;
18425;SDS011;9340;48.756;9.226;2022-09-14T05:47:00;8.10;;;7.30;;
18425;SDS011;9340;48.756;9.226;2022-09-14T05:49:35;10.02;;;9.13;;
18425;SDS011;9340;48.756;9.226;2022-09-14T05:52:22;7.45;;;6.85;;
18425;SDS011;9340;48.756;9.226;2022-09-14T05:55:06;11.15;;;9.40;;
18425;SDS011;9340;48.756;9.226;2022-09-14T05:57:34;10.65;;;9.65;;
18425;SDS011;9340;48.756;9.226;2022-09-14T06:00:04;9.68;;;8.77;;
18425;SDS011;9340;48.756;9.226;2022-09-14T06:02:32;11.38;;;9.55;;
18425;SDS011;9340;48.756;9.226;2022-09-14T06:04:58;11.05;;;9.90;;
18425;SDS011;9340;48.756;9.226;2022-09-14T06:07:26;9.38;;;8.45;;
18425;SDS011;9340;48.756;9.226;2022-09-14T06:09:53;11.43;;;10.25;;
18425;SDS011;9340;48.756;9.226;2022-09-14T06:12:19;7.47;;;6.85;;
18425;SDS011;9340;48.756;9.226;2022-09-14T06:14:46;7.60;;;6.90;;
18425;SDS011;9340;48.756;9.226;2022-09-14T06:17:13;9.23;;;8.00;;
18425;SDS011;9340;48.756;9.226;2022-09-14T06:19:40;8.23;;;7.43;;
18425;SDS011;9340;48.756;9.226;2022-09-14T06:22:06;8.88;;;8.07;;
18425;SDS011;9340;48.756;9.226;2022-09-14T06:24:34;8.75;;;7.88;;
18425;SDS011;9340;48.756;9.226;2022-09-14T06:27:01;7.78;;;7.03;;
18425;SDS011;9340;48.756;9.226;2022-09-14T06:29:28;7.13;;;6.43;;
18425;SDS011;9340;48.756;9.226;2022-09-14T06:31:54;8.65;;;7.38;;
18425;SDS011;9340;48.756;9.226;2022-09-14T06:34:21;7.97;;;7.07;;
18425;SDS011;9340;48.756;9.226;2022-09-14T06:36:48;6.50;;;6.00;;
18425;SDS011;9340;48.756;9.226;2022-09-14T06:39:14;9.20;;;6.78;;
18425;SDS011;9340;48.756;9.226;2022-09-14T06:41:42;7.63;;;7.00;;
18425;SDS011;9340;48.756;9.226;2022-09-14T06:44:09;8.63;;;7.03;;
18425;SDS011;9340;48.756;9.226;2022-09-14T06:46:36;7.18;;;6.53;;
18425;SDS011;9340;48.756;9.226;2022-09-14T06:49:04;7.35;;;6.30;;
18425;SDS011;9340;48.756;9.226;2022-09-14T06:51:32;7.03;;;6.43;;
18425;SDS011;9340;48.756;9.226;2022-09-14T06:54:00;8.90;;;7.30;;
18425;SDS011;9340;48.756;9.226;2022-09-14T06:56:29;8.65;;;7.85;;
18425;SDS011;9340;48.756;9.226;2022-09-14T06:58:58;7.95;;;7.32;;
18425;SDS011;9340;48.756;9.226;2022-09-14T07:01:25;6.95;;;6.45;;
18425;SDS011;9340;48.756;9.226;2022-09-14T07:03:53;7.18;;;6.47;;
18425;SDS011;9340;48.756;9.226;2022-09-14T07:06:21;7.03;;;6.32;;
18425;SDS011;9340;48.756;9.226;2022-09-14T07:08:49;6.40;;;5.90;;
18425;SDS011;9340;48.756;9.226;2022-09-14T07:11:18;7.55;;;5.97;;
18425;SDS011;9340;48.756;9.226;2022-09-14T07:13:46;5.65;;;5.15;;
18425;SDS011;9340;48.756;9.226;2022-09-14T07:16:14;5.57;;;4.90;;
18425;SDS011;9340;48.756;9.226;2022-09-14T07:18:41;4.63;;;4.00;;
18425;SDS011;9340;48.756;9.226;2022-09-14T07:21:09;5.85;;;5.35;;
18425;SDS011;9340;48.756;9.226;2022-09-14T07:23:37;4.35;;;3.95;;
18425;SDS011;9340;48.756;9.226;2022-09-14T07:26:07;4.72;;;4.32;;
18425;SDS011;9340;48.756;9.226;2022-09-14T07:28:35;4.95;;;4.45;;
18425;SDS011;9340;48.756;9.226;2022-09-14T07:31:02;4.90;;;4.45;;
18425;SDS011;9340;48.756;9.226;2022-09-14T07:33:32;5.55;;;4.65;;
18425;SDS011;9340;48.756;9.226;2022-09-14T07:36:04;4.43;;;3.70;;
18425;SDS011;9340;48.756;9.226;2022-09-14T07:38:32;4.82;;;4.10;;
18425;SDS011;9340;48.756;9.226;2022-09-14T07:40:59;5.03;;;4.53;;
18425;SDS011;9340;48.756;9.226;2022-09-14T07:43:26;4.60;;;4.13;;
18425;SDS011;9340;48.756;9.226;2022-09-14T07:45:53;7.10;;;4.63;;
18425;SDS011;9340;48.756;9.226;2022-09-14T07:48:20;7.75;;;4.45;;
18425;SDS011;9340;48.756;9.226;2022-09-14T07:50:50;5.03;;;4.53;;
18425;SDS011;9340;48.756;9.226;2022-09-14T07:53:24;4.25;;;3.85;;
18425;SDS011;9340;48.756;9.226;2022-09-14T07:55:51;5.75;;;4.15;;
18425;SDS011;9340;48.756;9.226;2022-09-14T07:58:18;4.97;;;4.35;;
18425;SDS011;9340;48.756;9.226;2022-09-14T08:00:44;4.63;;;4.22;;
18425;SDS011;9340;48.756;9.226;2022-09-14T08:03:11;4.57;;;3.88;;
18425;SDS011;9340;48.756;9.226;2022-09-14T08:05:38;4.75;;;3.90;;
18425;SDS011;9340;48.756;9.226;2022-09-14T08:08:06;5.20;;;4.22;;
18425;SDS011;9340;48.756;9.226;2022-09-14T08:10:33;4.60;;;4.20;;
18425;SDS011;9340;48.756;9.226;2022-09-14T08:13:00;4.13;;;3.28;;
18425;SDS011;9340;48.756;9.226;2022-09-14T08:15:28;4.70;;;3.20;;
18425;SDS011;9340;48.756;9.226;2022-09-14T08:17:55;4.88;;;3.25;;
18425;SDS011;9340;48.756;9.226;2022-09-14T08:20:22;3.78;;;3.42;;
18425;SDS011;9340;48.756;9.226;2022-09-14T08:22:49;4.03;;;3.17;;
18425;SDS011;9340;48.756;9.226;2022-09-14T08:25:17;4.22;;;3.42;;
18425;SDS011;9340;48.756;9.226;2022-09-14T08:27:44;4.95;;;3.17;;
18425;SDS011;9340;48.756;9.226;2022-09-14T08:30:11;4.35;;;3.47;;
18425;SDS011;9340;48.756;9.226;2022-09-14T08:32:38;4.10;;;3.70;;
18425;SDS011;9340;48.756;9.226;2022-09-14T08:35:06;3.50;;;3.20;;
18425;SDS011;9340;48.756;9.226;2022-09-14T08:37:33;3.42;;;3.15;;
18425;SDS011;9340;48.756;9.226;2022-09-14T08:40:00;3.70;;;3.40;;
18425;SDS011;9340;48.756;9.226;2022-09-14T08:42:28;4.95;;;3.33;;
18425;SDS011;9340;48.756;9.226;2022-09-14T08:44:56;3.70;;;3.25;;
18425;SDS011;9340;48.756;9.226;2022-09-14T08:47:26;3.58;;;3.25;;
18425;SDS011;9340;48.756;9.226;2022-09-14T08:49:57;3.33;;;3.03;;
18425;SDS011;9340;48.756;9.226;2022-09-14T08:52:29;4.47;;;3.25;;
18425;SDS011;9340;48.756;9.226;2022-09-14T08:54:59;3.10;;;2.90;;
18425;SDS011;9340;48.756;9.226;2022-09-14T08:57:31;4.25;;;3.05;;
18425;SDS011;9340;48.756;9.226;2022-09-14T09:00:04;4.47;;;2.85;;
18425;SDS011;9340;48.756;9.226;2022-09-14T09:02:45;6.20;;;3.55;;
18425;SDS011;9340;48.756;9.226;2022-09-14T09:05:43;4.60;;;3.20;;
18425;SDS011;9340;48.756;9.226;2022-09-14T09:08:17;3.80;;;3.38;;
18425;SDS011;9340;48.756;9.226;2022-09-14T09:10:50;4.15;;;3.75;;
18425;SDS011;9340;48.756;9.226;2022-09-14T09:13:21;4.13;;;3.45;;
18425;SDS011;9340;48.756;9.226;2022-09-14T09:15:52;3.85;;;2.97;;
18425;SDS011;9340;48.756;9.226;2022-09-14T09:18:21;3.40;;;3.10;;
18425;SDS011;9340;48.756;9.226;2022-09-14T09:20:58;3.67;;;3.15;;
18425;SDS011;9340;48.756;9.226;2022-09-14T09:23:28;3.78;;;2.70;;
18425;SDS011;9340;48.756;9.226;2022-09-14T09:25:58;3.13;;;2.65;;
18425;SDS011;9340;48.756;9.226;2022-09-14T09:28:29;3.92;;;3.53;;
18425;SDS011;9340;48.756;9.226;2022-09-14T09:30:57;4.25;;;2.80;;
18425;SDS011;9340;48.756;9.226;2022-09-14T09:33:29;3.85;;;3.03;;
18425;SDS011;9340;48.756;9.226;2022-09-14T09:35:56;3.70;;;2.80;;
18425;SDS011;9340;48.756;9.226;2022-09-14T09:38:23;4.88;;;3.28;;
18425;SDS011;9340;48.756;9.226;2022-09-14T09:40:53;3.25;;;2.50;;
18425;SDS011;9340;48.756;9.226;2022-09-14T09:43:22;4.53;;;2.58;;
18425;SDS011;9340;48.756;9.226;2022-09-14T09:46:00;3.13;;;2.83;;
18425;SDS011;9340;48.756;9.226;2022-09-14T09:48:30;4.13;;;2.30;;
18425;SDS011;9340;48.756;9.226;2022-09-14T09:51:07;5.60;;;2.63;;
18425;SDS011;9340;48.756;9.226;2022-09-14T09:53:45;3.33;;;3.03;;
18425;SDS011;9340;48.756;9.226;2022-09-14T09:56:18;2.95;;;2.38;;
18425;SDS011;9340;48.756;9.226;2022-09-14T09:58:46;2.70;;;2.50;;
18425;SDS011;9340;48.756;9.226;2022-09-14T10:01:21;4.10;;;2.97;;
18425;SDS011;9340;48.756;9.226;2022-09-14T10:03:59;3.80;;;2.70;;
18425;SDS011;9340;48.756;9.226;2022-09-14T10:06:27;3.35;;;3.00;;
18425;SDS011;9340;48.756;9.226;2022-09-14T10:08:55;3.45;;;2.80;;
18425;SDS011;9340;48.756;9.226;2022-09-14T10:11:30;4.28;;;2.92;;
18425;SDS011;9340;48.756;9.226;2022-09-14T10:14:00;4.55;;;2.80;;
18425;SDS011;9340;48.756;9.226;2022-09-14T10:16:31;4.53;;;3.08;;
18425;SDS011;9340;48.756;9.226;2022-09-14T10:19:00;3.28;;;2.60;;
18425;SDS011;9340;48.756;9.226;2022-09-14T10:21:28;3.42;;;2.85;;
18425;SDS011;9340;48.756;9.226;2022-09-14T10:24:03;3.67;;;2.58;;
18425;SDS011;9340;48.756;9.226;2022-09-14T10:26:35;6.45;;;3.15;;
18425;SDS011;9340;48.756;9.226;2022-09-14T10:32:01;3.45;;;2.28;;
18425;SDS011;9340;48.756;9.226;2022-09-14T10:34:36;3.30;;;3.08;;
18425;SDS011;9340;48.756;9.226;2022-09-14T10:37:16;3.20;;;2.90;;
18425;SDS011;9340;48.756;9.226;2022-09-14T10:39:52;7.07;;;3.22;;
18425;SDS011;9340;48.756;9.226;2022-09-14T10:42:36;4.57;;;2.88;;
18425;SDS011;9340;48.756;9.226;2022-09-14T10:45:11;4.15;;;3.22;;
18425;SDS011;9340;48.756;9.226;2022-09-14T10:50:56;4.80;;;3.03;;
18425;SDS011;9340;48.756;9.226;2022-09-14T10:53:33;3.05;;;2.60;;
18425;SDS011;9340;48.756;9.226;2022-09-14T10:56:08;4.70;;;2.40;;
18425;SDS011;9340;48.756;9.226;2022-09-14T10:58:43;4.07;;;2.55;;
18425;SDS011;9340;48.756;9.226;2022-09-14T11:01:27;2.92;;;2.63;;
18425;SDS011;9340;48.756;9.226;2022-09-14T11:04:18;3.13;;;2.55;;
18425;SDS011;9340;48.756;9.226;2022-09-14T11:06:56;4.93;;;2.83;;
18425;SDS011;9340;48.756;9.226;2022-09-14T11:09:32;4.45;;;2.55;;
18425;SDS011;9340;48.756;9.226;2022-09-14T11:12:05;3.63;;;2.75;;
18425;SDS011;9340;48.756;9.226;2022-09-14T11:14:57;3.00;;;2.70;;
18425;SDS011;9340;48.756;9.226;2022-09-14T11:17:41;3.25;;;2.80;;
18425;SDS011;9340;48.756;9.226;2022-09-14T11:20:26;2.95;;;2.60;;
18425;SDS011;9340;48.756;9.226;2022-09-14T11:23:03;3.70;;;2.78;;
18425;SDS011;9340;48.756;9.226;2022-09-14T11:25:42;2.80;;;2.33;;
18425;SDS011;9340;48.756;9.226;2022-09-14T11:28:12;3.50;;;2.50;;
18425;SDS011;9340;48.756;9.226;2022-09-14T11:30:44;3.38;;;2.60;;
18425;SDS011;9340;48.756;9.226;2022-09-14T11:33:16;5.00;;;2.60;;
18425;SDS011;9340;48.756;9.226;2022-09-14T11:35:49;3.88;;;2.67;;
18425;SDS011;9340;48.756;9.226;2022-09-14T11:38:20;2.85;;;2.40;;
18425;SDS011;9340;48.756;9.226;2022-09-14T11:40:51;3.28;;;2.42;;
18425;SDS011;9340;48.756;9.226;2022-09-14T11:43:23;3.55;;;2.40;;
18425;SDS011;9340;48.756;9.226;2022-09-14T11:45:56;4.28;;;2.38;;
18425;SDS011;9340;48.756;9.226;2022-09-14T11:48:28;3.15;;;2.25;;
18425;SDS011;9340;48.756;9.226;2022-09-14T11:53:49;2.63;;;2.40;;
18425;SDS011;9340;48.756;9.226;2022-09-14T11:56:21;2.55;;;2.35;;
18425;SDS011;9340;48.756;9.226;2022-09-14T11:58:52;3.90;;;2.25;;
18425;SDS011;9340;48.756;9.226;2022-09-14T12:01:24;2.85;;;2.25;;
18425;SDS011;9340;48.756;9.226;2022-09-14T12:04:05;2.53;;;2.05;;
18425;SDS011;9340;48.756;9.226;2022-09-14T12:06:42;3.35;;;2.50;;
18425;SDS011;9340;48.756;9.226;2022-09-14T12:12:26;4.07;;;2.50;;
18425;SDS011;9340;48.756;9.226;2022-09-14T12:17:48;3.88;;;2.60;;
18425;SDS011;9340;48.756;9.226;2022-09-14T12:20:27;2.58;;;2.38;;
18425;SDS011;9340;48.756;9.226;2022-09-14T12:23:04;4.65;;;2.45;;
18425;SDS011;9340;48.756;9.226;2022-09-14T12:25:54;6.43;;;2.97;;
18425;SDS011;9340;48.756;9.226;2022-09-14T12:28:35;2.53;;;2.33;;
18425;SDS011;9340;48.756;9.226;2022-09-14T12:31:05;5.38;;;2.35;;
18425;SDS011;9340;48.756;9.226;2022-09-14T12:36:59;2.88;;;2.47;;
18425;SDS011;9340;48.756;9.226;2022-09-14T12:39:33;4.57;;;2.88;;
18425;SDS011;9340;48.756;9.226;2022-09-14T12:42:02;4.40;;;3.08;;
18425;SDS011;9340;48.756;9.226;2022-09-14T12:44:49;4.32;;;2.53;;
18425;SDS011;9340;48.756;9.226;2022-09-14T12:50:23;4.55;;;2.97;;
18425;SDS011;9340;48.756;9.226;2022-09-14T12:55:57;2.22;;;2.03;;
18425;SDS011;9340;48.756;9.226;2022-09-14T12:58:32;5.30;;;2.55;;
18425;SDS011;9340;48.756;9.226;2022-09-14T13:01:13;2.95;;;2.65;;
18425;SDS011;9340;48.756;9.226;2022-09-14T13:03:49;3.60;;;2.58;;
18425;SDS011;9340;48.756;9.226;2022-09-14T13:06:17;3.50;;;2.72;;
18425;SDS011;9340;48.756;9.226;2022-09-14T13:08:45;7.30;;;2.80;;
18425;SDS011;9340;48.756;9.226;2022-09-14T13:11:22;3.53;;;2.63;;
18425;SDS011;9340;48.756;9.226;2022-09-14T13:13:52;3.63;;;2.97;;
18425;SDS011;9340;48.756;9.226;2022-09-14T13:16:23;4.28;;;3.20;;
18425;SDS011;9340;48.756;9.226;2022-09-14T13:18:59;6.32;;;3.15;;
18425;SDS011;9340;48.756;9.226;2022-09-14T13:21:28;3.55;;;2.90;;
18425;SDS011;9340;48.756;9.226;2022-09-14T13:23:55;3.25;;;2.80;;
18425;SDS011;9340;48.756;9.226;2022-09-14T13:26:24;3.10;;;2.63;;
18425;SDS011;9340;48.756;9.226;2022-09-14T13:28:53;3.53;;;2.65;;
18425;SDS011;9340;48.756;9.226;2022-09-14T13:31:24;2.70;;;2.50;;
18425;SDS011;9340;48.756;9.226;2022-09-14T13:33:55;4.43;;;3.05;;
18425;SDS011;9340;48.756;9.226;2022-09-14T13:36:23;5.28;;;3.13;;
18425;SDS011;9340;48.756;9.226;2022-09-14T13:38:51;3.78;;;2.45;;
18425;SDS011;9340;48.756;9.226;2022-09-14T13:41:19;2.95;;;2.65;;
18425;SDS011;9340;48.756;9.226;2022-09-14T13:43:50;5.13;;;2.70;;
18425;SDS011;9340;48.756;9.226;2022-09-14T13:46:19;3.58;;;2.33;;
18425;SDS011;9340;48.756;9.226;2022-09-14T13:48:46;4.75;;;2.33;;
18425;SDS011;9340;48.756;9.226;2022-09-14T13:51:14;2.58;;;2.38;;
18425;SDS011;9340;48.756;9.226;2022-09-14T13:53:42;2.35;;;2.13;;
18425;SDS011;9340;48.756;9.226;2022-09-14T13:56:23;3.28;;;2.30;;
18425;SDS011;9340;48.756;9.226;2022-09-14T14:01:48;2.47;;;1.92;;
18425;SDS011;9340;48.756;9.226;2022-09-14T14:04:23;2.47;;;1.90;;
18425;SDS011;9340;48.756;9.226;2022-09-14T14:06:58;3.05;;;2.10;;
18425;SDS011;9340;48.756;9.226;2022-09-14T14:09:43;2.25;;;2.05;;
18425;SDS011;9340;48.756;9.226;2022-09-14T14:12:21;2.88;;;1.73;;
18425;SDS011;9340;48.756;9.226;2022-09-14T14:14:55;3.60;;;1.88;;
18425;SDS011;9340;48.756;9.226;2022-09-14T14:17:33;2.15;;;1.95;;
18425;SDS011;9340;48.756;9.226;2022-09-14T14:22:56;3.90;;;2.22;;
18425;SDS011;9340;48.756;9.226;2022-09-14T14:25:27;4.53;;;1.88;;
18425;SDS011;9340;48.756;9.226;2022-09-14T14:27:57;2.35;;;1.70;;
18425;SDS011;9340;48.756;9.226;2022-09-14T14:30:27;2.63;;;1.67;;
18425;SDS011;9340;48.756;9.226;2022-09-14T14:32:55;1.58;;;1.38;;
18425;SDS011;9340;48.756;9.226;2022-09-14T14:35:27;2.55;;;1.60;;
18425;SDS011;9340;48.756;9.226;2022-09-14T14:37:55;2.65;;;1.65;;
18425;SDS011;9340;48.756;9.226;2022-09-14T14:40:22;2.22;;;1.77;;
18425;SDS011;9340;48.756;9.226;2022-09-14T14:42:51;2.17;;;1.98;;
18425;SDS011;9340;48.756;9.226;2022-09-14T14:45:19;2.13;;;1.75;;
18425;SDS011;9340;48.756;9.226;2022-09-14T14:47:51;2.00;;;1.80;;
18425;SDS011;9340;48.756;9.226;2022-09-14T14:50:20;2.88;;;1.95;;
18425;SDS011;9340;48.756;9.226;2022-09-14T14:52:48;5.00;;;1.77;;
18425;SDS011;9340;48.756;9.226;2022-09-14T14:55:15;1.70;;;1.60;;
18425;SDS011;9340;48.756;9.226;2022-09-14T14:57:43;2.20;;;1.80;;
18425;SDS011;9340;48.756;9.226;2022-09-14T15:00:12;1.90;;;1.75;;
18425;SDS011;9340;48.756;9.226;2022-09-14T15:02:40;1.77;;;1.67;;
18425;SDS011;9340;48.756;9.226;2022-09-14T15:05:08;3.40;;;1.92;;
18425;SDS011;9340;48.756;9.226;2022-09-14T15:07:35;1.50;;;1.40;;
18425;SDS011;9340;48.756;9.226;2022-09-14T15:10:02;1.75;;;1.65;;
18425;SDS011;9340;48.756;9.226;2022-09-14T15:12:30;2.42;;;1.42;;
18425;SDS011;9340;48.756;9.226;2022-09-14T15:14:57;1.70;;;1.60;;
18425;SDS011;9340;48.756;9.226;2022-09-14T15:17:24;2.10;;;1.75;;
18425;SDS011;9340;48.756;9.226;2022-09-14T15:19:51;1.45;;;1.35;;
18425;SDS011;9340;48.756;9.226;2022-09-14T15:22:20;1.90;;;1.65;;
18425;SDS011;9340;48.756;9.226;2022-09-14T15:24:46;1.80;;;1.38;;
18425;SDS011;9340;48.756;9.226;2022-09-14T15:27:13;1.58;;;1.48;;
18425;SDS011;9340;48.756;9.226;2022-09-14T15:29:40;2.08;;;1.42;;
18425;SDS011;9340;48.756;9.226;2022-09-14T15:32:07;3.53;;;2.00;;
18425;SDS011;9340;48.756;9.226;2022-09-14T15:34:33;2.03;;;1.52;;
18425;SDS011;9340;48.756;9.226;2022-09-14T15:37:00;3.88;;;1.45;;
18425;SDS011;9340;48.756;9.226;2022-09-14T15:39:28;1.60;;;1.50;;
18425;SDS011;9340;48.756;9.226;2022-09-14T15:41:56;2.65;;;1.30;;
18425;SDS011;9340;48.756;9.226;2022-09-14T15:44:23;1.20;;;1.10;;
18425;SDS011;9340;48.756;9.226;2022-09-14T15:46:50;2.33;;;1.50;;
18425;SDS011;9340;48.756;9.226;2022-09-14T15:49:18;3.30;;;1.40;;
18425;SDS011;9340;48.756;9.226;2022-09-14T15:51:46;1.63;;;1.40;;